Time;durP1;ratioP1;P1;durP2;ratioP2;P2;SDS_P1;SDS_P2;PMS_P1;PMS_P2;Temp;Humidity;BMP_temperature;BMP_pressure;BME280_temperature;BME280_humidity;BME280_pressure;Samples;Min_cycle;Max_cycle;Signal;HPM_P1;HPM_P2
2021/03/05 00:02:04;;;;;;;11.10;8.10;;;10.40;96.40;;;;;;10529635;28;20676;-79
2021/03/05 00:07:06;;;;;;;11.53;10.43;;;10.40;96.40;;;;;;10528642;28;20231;-79
2021/03/05 00:12:11;;;;;;;13.93;12.60;;;10.40;96.00;;;;;;10525783;28;20764;-79
2021/03/05 00:17:12;;;;;;;15.53;14.03;;;10.30;95.20;;;;;;10514746;28;20720;-79
2021/03/05 00:22:14;;;;;;;11.77;10.67;;;10.20;95.00;;;;;;10512717;28;20200;-79
2021/03/05 00:27:16;;;;;;;12.80;11.57;;;10.00;94.10;;;;;;10532663;28;20208;-80
2021/03/05 00:32:18;;;;;;;16.17;14.57;;;9.90;94.50;;;;;;10530582;28;20194;-80
2021/03/05 00:37:20;;;;;;;19.47;17.47;;;9.90;93.70;;;;;;10550928;28;20314;-80
2021/03/05 00:42:22;;;;;;;20.13;18.07;;;9.70;93.50;;;;;;10537167;28;20289;-80
2021/03/05 00:47:24;;;;;;;19.70;17.63;;;9.60;93.60;;;;;;10534593;28;20700;-80
2021/03/05 00:52:26;;;;;;;15.80;14.00;;;9.50;93.60;;;;;;10509087;28;20706;-80
2021/03/05 00:57:29;;;;;;;22.10;19.77;;;9.40;93.90;;;;;;10509616;28;20258;-80
2021/03/05 01:02:32;;;;;;;20.80;18.60;;;9.30;93.70;;;;;;10556944;28;20200;-80
2021/03/05 01:07:35;;;;;;;23.00;20.37;;;9.20;94.20;;;;;;10544000;28;20224;-80
2021/03/05 01:12:38;;;;;;;24.57;21.93;;;9.10;94.00;;;;;;10544414;28;20204;-80
2021/03/05 01:17:39;;;;;;;25.33;22.67;;;8.90;93.80;;;;;;10549399;28;20349;-81
2021/03/05 01:22:41;;;;;;;25.30;22.20;;;8.80;94.40;;;;;;10536849;28;20603;-80
2021/03/05 01:27:44;;;;;;;28.17;22.47;;;8.70;94.30;;;;;;10558208;28;20220;-80
2021/03/05 01:32:46;;;;;;;26.57;22.43;;;8.50;94.20;;;;;;10562527;28;20309;-80
2021/03/05 01:37:48;;;;;;;27.13;23.93;;;8.50;94.10;;;;;;10552205;28;20216;-80
2021/03/05 01:42:50;;;;;;;26.43;22.73;;;8.40;93.90;;;;;;10539706;28;20278;-80
2021/03/05 01:47:55;;;;;;;27.40;22.20;;;8.40;93.80;;;;;;10523121;28;20734;-80
2021/03/05 01:53:01;;;;;;;24.43;20.20;;;8.30;93.50;;;;;;10553526;28;20701;-81
2021/03/05 01:58:04;;;;;;;29.57;23.77;;;8.30;94.20;;;;;;10530445;28;20215;-80
2021/03/05 02:03:07;;;;;;;30.23;23.27;;;8.10;94.40;;;;;;10537280;28;20557;-80
2021/03/05 02:08:09;;;;;;;34.10;26.77;;;8.00;95.70;;;;;;10563218;22;20235;-78
2021/03/05 02:13:12;;;;;;;33.40;25.03;;;7.80;96.20;;;;;;10537474;28;20286;-78
2021/03/05 02:18:23;;;;;;;36.00;27.10;;;7.70;96.70;;;;;;10534856;28;20678;-79
2021/03/05 02:23:53;;;;;;;33.83;25.97;;;7.60;97.10;;;;;;10536345;28;20207;-78
2021/03/05 02:29:23;;;;;;;34.07;26.60;;;7.60;97.00;;;;;;10534168;28;20216;-78
2021/03/05 02:34:29;;;;;;;32.67;25.30;;;7.40;97.10;;;;;;10536477;28;20207;-79
2021/03/05 02:39:38;;;;;;;30.70;24.90;;;7.40;96.50;;;;;;10517921;28;20220;-79
2021/03/05 02:44:46;;;;;;;32.80;25.07;;;7.40;97.10;;;;;;10536139;28;20211;-78
2021/03/05 02:49:54;;;;;;;27.63;21.90;;;7.30;96.50;;;;;;10518402;28;20242;-79
2021/03/05 02:54:59;;;;;;;20.40;16.73;;;7.30;96.40;;;;;;10536034;28;20282;-78
2021/03/05 03:00:03;;;;;;;29.10;23.70;;;7.30;96.40;;;;;;10534672;28;20235;-79
2021/03/05 03:05:07;;;;;;;28.07;22.57;;;7.30;96.00;;;;;;10534797;28;20207;-79
2021/03/05 03:10:11;;;;;;;28.10;22.80;;;7.30;96.20;;;;;;10536562;28;20218;-79
2021/03/05 03:15:14;;;;;;;24.17;19.77;;;7.30;96.10;;;;;;10541146;28;20202;-79
2021/03/05 03:20:19;;;;;;;27.90;21.67;;;7.40;95.80;;;;;;10564678;28;20243;-79
2021/03/05 03:25:23;;;;;;;27.90;22.10;;;7.40;95.90;;;;;;10544981;28;20245;-79
2021/03/05 03:30:26;;;;;;;28.40;23.00;;;7.50;95.80;;;;;;10544522;28;20220;-79
2021/03/05 03:35:29;;;;;;;23.70;19.57;;;7.50;95.70;;;;;;10544737;28;20200;-79
2021/03/05 03:40:32;;;;;;;22.13;19.43;;;7.50;95.40;;;;;;10555431;28;20227;-78
2021/03/05 03:45:36;;;;;;;24.13;19.73;;;7.50;95.50;;;;;;10531548;28;20243;-79
2021/03/05 03:50:43;;;;;;;23.80;20.50;;;7.60;95.20;;;;;;10552179;28;20227;-79
2021/03/05 03:55:45;;;;;;;22.63;20.23;;;7.60;95.00;;;;;;10541348;28;20199;-78
2021/03/05 04:00:47;;;;;;;24.27;21.03;;;7.60;95.10;;;;;;10525336;28;20224;-78
2021/03/05 04:05:52;;;;;;;23.87;19.40;;;7.60;95.20;;;;;;10541235;28;20291;-78
2021/03/05 04:10:54;;;;;;;20.10;17.97;;;7.60;95.30;;;;;;10541757;28;20262;-78
2021/03/05 04:15:56;;;;;;;19.70;17.60;;;7.60;95.20;;;;;;10539415;28;20329;-79
2021/03/05 04:21:02;;;;;;;18.67;16.77;;;7.60;95.40;;;;;;10539728;28;20270;-78
2021/03/05 04:26:03;;;;;;;16.33;14.73;;;7.60;95.50;;;;;;10540220;28;20719;-78
2021/03/05 04:31:05;;;;;;;17.00;15.30;;;7.50;95.60;;;;;;10539769;28;20299;-79
2021/03/05 04:36:08;;;;;;;16.73;15.10;;;7.50;95.10;;;;;;10522482;28;20306;-78
2021/03/05 04:41:09;;;;;;;16.77;14.97;;;7.50;95.30;;;;;;10540394;28;20223;-78
2021/03/05 04:46:11;;;;;;;16.40;14.73;;;7.40;95.10;;;;;;10539206;28;20326;-78
2021/03/05 04:51:13;;;;;;;17.20;15.50;;;7.40;95.00;;;;;;10541234;28;20219;-78
2021/03/05 04:56:15;;;;;;;16.37;14.73;;;7.30;95.30;;;;;;10541595;28;20340;-79
2021/03/05 05:01:16;;;;;;;17.10;15.50;;;7.20;96.00;;;;;;10538460;28;20219;-78
2021/03/05 05:06:20;;;;;;;17.23;15.50;;;7.30;95.50;;;;;;10532693;28;20202;-78
2021/03/05 05:11:21;;;;;;;16.70;15.00;;;7.30;96.20;;;;;;10538771;28;20306;-79
2021/03/05 05:16:25;;;;;;;15.13;13.53;;;7.30;95.80;;;;;;10538164;28;20698;-79
2021/03/05 05:21:28;;;;;;;14.13;12.73;;;7.30;95.20;;;;;;10545051;28;20226;-79
2021/03/05 05:26:29;;;;;;;15.87;14.23;;;7.30;95.40;;;;;;10527398;28;20697;-79
2021/03/05 05:31:31;;;;;;;15.90;14.37;;;7.30;95.20;;;;;;10521088;28;20202;-79
2021/03/05 05:36:33;;;;;;;14.70;13.20;;;7.30;95.40;;;;;;10549368;28;20283;-79
2021/03/05 05:41:39;;;;;;;14.33;12.50;;;7.40;95.10;;;;;;10534337;28;20226;-79
2021/03/05 05:46:41;;;;;;;15.60;13.90;;;7.40;94.80;;;;;;10523605;28;20196;-79
2021/03/05 05:51:46;;;;;;;14.37;12.97;;;7.40;95.00;;;;;;10538751;28;20740;-78
2021/03/05 05:56:48;;;;;;;16.40;14.70;;;7.40;94.80;;;;;;10509427;28;20224;-78
2021/03/05 06:01:51;;;;;;;16.23;14.57;;;7.40;94.90;;;;;;10515870;28;20219;-78
2021/03/05 06:06:54;;;;;;;13.50;12.20;;;7.40;94.40;;;;;;10511224;28;20699;-78
2021/03/05 06:11:57;;;;;;;14.77;13.13;;;7.30;94.40;;;;;;10520823;28;20200;-78
2021/03/05 06:17:01;;;;;;;15.77;13.83;;;7.30;94.20;;;;;;10520723;28;20751;-78
2021/03/05 06:22:17;;;;;;;15.27;13.33;;;7.40;94.20;;;;;;10519292;28;20215;-78
2021/03/05 06:27:27;;;;;;;15.83;14.20;;;7.40;94.00;;;;;;10518487;28;20215;-79
2021/03/05 06:32:38;;;;;;;15.20;13.00;;;7.40;94.30;;;;;;10535669;28;20207;-79
2021/03/05 06:37:45;;;;;;;17.33;14.20;;;7.30;94.20;;;;;;10534066;28;20219;-78
2021/03/05 06:42:50;;;;;;;16.40;14.60;;;7.30;94.40;;;;;;10519746;28;20341;-79
2021/03/05 06:47:59;;;;;;;15.83;13.20;;;7.30;94.60;;;;;;10535500;28;20211;-79
2021/03/05 06:53:18;;;;;;;13.87;12.27;;;7.30;95.10;;;;;;10535589;28;20601;-78
2021/03/05 06:58:20;;;;;;;15.70;14.07;;;7.30;94.80;;;;;;10535970;28;20287;-79
2021/03/05 07:03:23;;;;;;;15.83;13.30;;;7.30;94.80;;;;;;10536163;28;20328;-79
2021/03/05 07:08:38;;;;;;;15.17;12.90;;;7.30;94.50;;;;;;10518259;28;20573;-79
2021/03/05 07:13:50;;;;;;;16.80;13.90;;;7.20;94.50;;;;;;10541355;28;20187;-78
2021/03/05 07:18:51;;;;;;;14.20;12.60;;;7.20;94.90;;;;;;10549358;28;20216;-79
2021/03/05 07:23:55;;;;;;;15.10;13.13;;;7.20;94.70;;;;;;10518389;28;20191;-79
2021/03/05 07:28:57;;;;;;;14.60;12.87;;;7.20;94.90;;;;;;10553507;28;20211;-79
2021/03/05 07:34:02;;;;;;;15.43;12.97;;;7.30;94.60;;;;;;10532336;28;20698;-79
2021/03/05 07:39:05;;;;;;;13.87;11.83;;;7.30;94.40;;;;;;10535890;28;20223;-79
2021/03/05 07:44:07;;;;;;;16.43;14.60;;;7.30;94.20;;;;;;10536085;28;20253;-79
2021/03/05 07:49:09;;;;;;;19.90;14.23;;;7.30;94.10;;;;;;10536032;28;20295;-78
2021/03/05 07:54:12;;;;;;;15.90;14.20;;;7.30;94.20;;;;;;10531538;28;20548;-79
2021/03/05 07:59:44;;;;;;;15.10;12.93;;;7.40;94.30;;;;;;10523583;28;20219;-78
2021/03/05 08:04:59;;;;;;;16.63;12.70;;;7.40;94.10;;;;;;10524768;28;20632;-78
2021/03/05 08:10:01;;;;;;;17.43;15.03;;;7.40;93.80;;;;;;10517058;22;20233;-80
2021/03/05 08:15:25;;;;;;;16.70;13.90;;;7.40;94.20;;;;;;10492660;28;20216;-80
2021/03/05 08:20:52;;;;;;;18.63;14.77;;;7.50;94.00;;;;;;10489385;28;20301;-79
2021/03/05 08:25:55;;;;;;;16.07;13.67;;;7.50;94.00;;;;;;10490862;28;20201;-80
2021/03/05 08:30:56;;;;;;;14.77;13.17;;;7.50;93.70;;;;;;10477463;28;20213;-80
2021/03/05 08:35:58;;;;;;;15.40;12.83;;;7.60;93.90;;;;;;10489828;28;20283;-79
2021/03/05 08:41:04;;;;;;;13.90;12.33;;;7.60;93.40;;;;;;10476476;28;20787;-80
2021/03/05 08:46:07;;;;;;;14.97;11.63;;;7.70;93.00;;;;;;10467413;28;20645;-80
2021/03/05 08:51:17;;;;;;;14.97;11.57;;;7.70;93.20;;;;;;10466626;28;20332;-80
2021/03/05 08:56:22;;;;;;;14.00;12.17;;;7.70;92.90;;;;;;10477821;28;20197;-80
2021/03/05 09:01:32;;;;;;;14.50;12.47;;;7.70;93.30;;;;;;10469681;28;20225;-80
2021/03/05 09:06:33;;;;;;;14.50;12.50;;;7.80;93.00;;;;;;10468218;28;20707;-79
2021/03/05 09:11:36;;;;;;;11.13;10.00;;;7.80;93.00;;;;;;10466349;28;20752;-79
2021/03/05 09:16:53;;;;;;;12.80;11.30;;;7.80;93.10;;;;;;10470306;28;20692;-79
2021/03/05 09:22:07;;;;;;;14.10;11.43;;;7.80;93.40;;;;;;10468653;28;20221;-79
2021/03/05 09:27:20;;;;;;;13.43;11.83;;;7.80;92.90;;;;;;10466605;28;20229;-79
2021/03/05 09:32:22;;;;;;;14.40;10.67;;;7.90;92.80;;;;;;10467937;28;20185;-80
2021/03/05 09:37:26;;;;;;;12.70;9.80;;;8.00;92.40;;;;;;10463851;28;20229;-80
2021/03/05 09:42:49;;;;;;;13.97;11.70;;;8.00;91.70;;;;;;10477556;28;20221;-80
2021/03/05 09:47:51;;;;;;;12.10;10.80;;;8.10;91.70;;;;;;10476419;28;20799;-80
2021/03/05 09:52:53;;;;;;;13.27;10.53;;;8.10;91.30;;;;;;10478425;28;20200;-80
2021/03/05 09:57:56;;;;;;;11.90;10.37;;;8.20;91.30;;;;;;10493421;28;20217;-80
2021/03/05 10:03:06;;;;;;;12.90;10.77;;;8.30;91.40;;;;;;10486840;28;20620;-80
2021/03/05 10:08:13;;;;;;;12.07;10.67;;;8.40;91.30;;;;;;10490052;28;20217;-80
2021/03/05 10:13:15;;;;;;;13.17;11.70;;;8.50;90.70;;;;;;10465815;28;20198;-80
2021/03/05 10:18:19;;;;;;;12.43;10.97;;;8.50;90.80;;;;;;10465475;28;20587;-80
2021/03/05 10:23:23;;;;;;;13.73;11.33;;;8.50;90.70;;;;;;10477168;28;20194;-80
2021/03/05 10:28:27;;;;;;;14.60;10.63;;;8.60;90.40;;;;;;10465313;28;20213;-80
2021/03/05 10:33:39;;;;;;;13.80;10.83;;;8.60;90.20;;;;;;10469154;28;20197;-79
2021/03/05 10:38:42;;;;;;;12.37;10.57;;;8.60;90.10;;;;;;10467246;28;20225;-79
2021/03/05 10:43:44;;;;;;;14.23;10.97;;;8.60;90.40;;;;;;10454487;28;20204;-80
2021/03/05 10:48:46;;;;;;;11.53;10.33;;;8.60;90.10;;;;;;10464095;28;20276;-79
2021/03/05 10:53:47;;;;;;;12.20;10.30;;;8.60;88.90;;;;;;10469936;28;20196;-80
2021/03/05 10:58:50;;;;;;;13.97;11.13;;;8.60;89.60;;;;;;10465369;28;20711;-79
2021/03/05 11:03:52;;;;;;;12.10;10.23;;;8.60;89.20;;;;;;10463771;28;20201;-80
2021/03/05 11:08:53;;;;;;;14.90;11.40;;;8.50;88.30;;;;;;10468643;28;20221;-80
2021/03/05 11:13:56;;;;;;;12.50;11.17;;;8.60;87.40;;;;;;10465319;28;20641;-80
2021/03/05 11:18:58;;;;;;;11.67;10.37;;;8.70;88.20;;;;;;10463361;28;20209;-79
2021/03/05 11:24:00;;;;;;;11.47;10.00;;;8.80;86.50;;;;;;10477874;28;20569;-80
2021/03/05 11:29:03;;;;;;;12.93;11.47;;;8.80;86.70;;;;;;10475944;28;20240;-79
2021/03/05 11:34:05;;;;;;;15.63;10.90;;;8.70;86.30;;;;;;10462827;28;20645;-79
2021/03/05 11:39:07;;;;;;;13.40;11.70;;;8.70;87.50;;;;;;10484802;28;20236;-80
2021/03/05 11:44:09;;;;;;;12.00;10.70;;;8.60;86.40;;;;;;10472716;28;20204;-80
2021/03/05 11:49:11;;;;;;;12.33;10.80;;;8.60;85.40;;;;;;10464052;28;20213;-80
2021/03/05 11:54:13;;;;;;;12.37;11.07;;;8.60;85.30;;;;;;10459067;28;20750;-80
2021/03/05 11:59:15;;;;;;;12.30;11.00;;;8.50;85.80;;;;;;10477778;28;20231;-82
2021/03/05 12:04:17;;;;;;;11.93;10.70;;;8.60;86.00;;;;;;10465250;28;20748;-80
2021/03/05 12:09:19;;;;;;;12.47;10.43;;;8.60;85.20;;;;;;10483751;28;20224;-79
2021/03/05 12:14:21;;;;;;;12.60;10.97;;;8.70;84.50;;;;;;10482317;28;20707;-80
2021/03/05 12:19:24;;;;;;;11.27;10.07;;;8.70;85.00;;;;;;10483110;28;20213;-80
2021/03/05 12:24:26;;;;;;;12.13;10.80;;;8.80;84.40;;;;;;10479170;28;20664;-79
2021/03/05 12:29:28;;;;;;;13.80;12.40;;;8.90;84.40;;;;;;10482477;28;20700;-80
2021/03/05 12:34:30;;;;;;;14.27;11.20;;;8.90;83.90;;;;;;10489188;28;20676;-80
2021/03/05 12:39:31;;;;;;;12.40;10.37;;;8.90;84.30;;;;;;10489007;28;20241;-80
2021/03/05 12:44:34;;;;;;;11.63;10.40;;;8.90;82.60;;;;;;10492475;28;20212;-80
2021/03/05 12:49:36;;;;;;;15.13;10.40;;;8.90;83.70;;;;;;10485730;28;21221;-80
2021/03/05 12:54:45;;;;;;;11.90;10.70;;;8.90;83.00;;;;;;10469724;28;20274;-80
2021/03/05 12:59:48;;;;;;;11.90;9.80;;;9.00;82.90;;;;;;10452360;28;20268;-80
2021/03/05 13:04:50;;;;;;;13.20;10.50;;;9.10;83.20;;;;;;10453678;28;20206;-80
2021/03/05 13:09:51;;;;;;;11.57;10.37;;;9.20;81.90;;;;;;10460892;28;20303;-80
2021/03/05 13:14:54;;;;;;;12.93;10.67;;;9.20;80.00;;;;;;10456192;28;20205;-80
2021/03/05 13:19:56;;;;;;;11.60;9.97;;;9.10;80.20;;;;;;10455914;28;20228;-79
2021/03/05 13:24:57;;;;;;;11.93;10.33;;;9.10;80.70;;;;;;10460146;28;20216;-80
2021/03/05 13:30:00;;;;;;;13.40;10.30;;;9.10;80.50;;;;;;10461526;28;20888;-80
2021/03/05 13:35:01;;;;;;;11.27;9.83;;;9.10;80.60;;;;;;10459222;28;20201;-79
2021/03/05 13:40:04;;;;;;;11.53;9.70;;;9.00;81.50;;;;;;10452595;28;20363;-80
2021/03/05 13:45:08;;;;;;;13.43;10.40;;;9.00;80.30;;;;;;10470809;28;20207;-80
2021/03/05 13:50:10;;;;;;;13.17;11.83;;;8.90;82.20;;;;;;10464838;28;20213;-80
2021/03/05 13:55:13;;;;;;;13.73;11.50;;;9.00;82.40;;;;;;10465919;28;20649;-80
2021/03/05 14:00:16;;;;;;;13.03;11.00;;;9.00;81.70;;;;;;10463563;28;20213;-80
2021/03/05 14:05:19;;;;;;;13.30;11.30;;;9.00;81.40;;;;;;10462335;28;20205;-80
2021/03/05 14:10:21;;;;;;;14.73;12.43;;;8.90;82.50;;;;;;10460426;28;20720;-80
2021/03/05 14:15:26;;;;;;;13.03;11.63;;;8.80;83.70;;;;;;10446998;28;20199;-80
2021/03/05 14:20:29;;;;;;;13.07;11.67;;;8.70;84.20;;;;;;10433361;28;20225;-80
2021/03/05 14:25:31;;;;;;;12.20;9.80;;;8.70;84.60;;;;;;10446675;28;20913;-80
2021/03/05 14:30:34;;;;;;;11.30;10.10;;;8.60;84.10;;;;;;10459944;28;20633;-80
2021/03/05 14:35:36;;;;;;;10.73;9.60;;;8.50;84.80;;;;;;10456186;28;20193;-80
2021/03/05 14:40:38;;;;;;;11.13;9.20;;;8.50;83.10;;;;;;10482949;28;20225;-80
2021/03/05 14:45:40;;;;;;;12.17;10.07;;;8.40;84.20;;;;;;10488533;28;20265;-80
2021/03/05 14:50:42;;;;;;;11.60;10.30;;;8.40;84.50;;;;;;10492754;28;20352;-80
2021/03/05 14:55:43;;;;;;;11.90;10.60;;;8.40;85.10;;;;;;10462631;28;20211;-80
2021/03/05 15:00:45;;;;;;;14.30;10.40;;;8.40;85.00;;;;;;10458458;28;20744;-80
2021/03/05 15:05:51;;;;;;;14.47;11.27;;;8.40;86.50;;;;;;10460730;28;20201;-80
2021/03/05 15:10:54;;;;;;;11.73;10.53;;;8.40;85.60;;;;;;10470628;28;20283;-80
2021/03/05 15:15:56;;;;;;;10.50;9.50;;;8.30;86.90;;;;;;10472164;28;20236;-80
2021/03/05 15:20:58;;;;;;;10.37;9.23;;;8.30;88.10;;;;;;10448685;28;20768;-80
2021/03/05 15:26:00;;;;;;;10.73;9.60;;;8.30;88.10;;;;;;10459269;28;20205;-81
2021/03/05 15:31:02;;;;;;;10.40;9.37;;;8.30;88.70;;;;;;10453511;28;20715;-81
2021/03/05 15:36:05;;;;;;;10.13;9.13;;;8.30;88.30;;;;;;10472273;28;20201;-82
2021/03/05 15:41:06;;;;;;;10.40;8.33;;;8.20;89.30;;;;;;10472411;28;20237;-81
2021/03/05 15:46:09;;;;;;;8.87;7.10;;;8.20;88.20;;;;;;10471589;28;20201;-80
2021/03/05 15:51:12;;;;;;;7.90;6.70;;;8.20;87.50;;;;;;10471553;28;20221;-80
2021/03/05 15:56:14;;;;;;;6.83;6.13;;;8.20;88.00;;;;;;10477093;28;20204;-81
2021/03/05 16:01:17;;;;;;;5.50;5.00;;;7.90;88.90;;;;;;10472346;28;20252;-81
2021/03/05 16:06:18;;;;;;;4.90;4.47;;;7.50;90.90;;;;;;10475962;28;20262;-81
2021/03/05 16:11:20;;;;;;;4.90;4.50;;;7.30;92.10;;;;;;10473685;28;20225;-80
2021/03/05 16:16:22;;;;;;;4.20;3.90;;;7.20;91.90;;;;;;10465710;28;20258;-81
2021/03/05 16:21:24;;;;;;;4.93;4.43;;;7.10;91.10;;;;;;10454549;28;20244;-80
2021/03/05 16:26:26;;;;;;;4.70;4.20;;;6.80;90.60;;;;;;10456399;28;20233;-81
2021/03/05 16:31:29;;;;;;;5.37;4.87;;;6.60;90.60;;;;;;10473809;28;20297;-80
2021/03/05 16:36:32;;;;;;;5.77;5.27;;;6.40;90.40;;;;;;10477239;28;20695;-82
2021/03/05 16:41:38;;;;;;;5.07;4.63;;;6.40;91.80;;;;;;10453386;28;20264;-81
2021/03/05 16:46:42;;;;;;;4.97;4.57;;;6.40;91.70;;;;;;10461254;28;20205;-80
2021/03/05 16:51:44;;;;;;;4.57;4.17;;;6.50;90.20;;;;;;10444746;28;20300;-81
2021/03/05 16:56:46;;;;;;;4.03;3.70;;;6.50;90.00;;;;;;10442255;28;20617;-81
2021/03/05 17:01:49;;;;;;;4.57;4.17;;;6.50;90.10;;;;;;10454867;28;20308;-82
2021/03/05 17:06:51;;;;;;;4.83;4.43;;;6.50;91.60;;;;;;10450812;28;20197;-81
2021/03/05 17:11:53;;;;;;;5.13;4.60;;;6.70;92.50;;;;;;10458222;28;20661;-81
2021/03/05 17:16:55;;;;;;;6.27;5.67;;;6.80;91.80;;;;;;10457777;28;20197;-82
2021/03/05 17:21:57;;;;;;;5.53;5.03;;;6.90;91.40;;;;;;10458175;28;20251;-80
2021/03/05 17:26:58;;;;;;;6.30;5.57;;;6.90;91.40;;;;;;10436918;28;20198;-80
2021/03/05 17:32:01;;;;;;;6.60;6.00;;;7.00;90.60;;;;;;10438690;28;20193;-81
2021/03/05 17:37:02;;;;;;;7.03;6.33;;;7.00;90.40;;;;;;10435993;28;20695;-80
2021/03/05 17:42:04;;;;;;;7.10;6.40;;;7.00;91.10;;;;;;10470953;28;20273;-80
2021/03/05 17:47:07;;;;;;;6.67;6.00;;;7.00;91.40;;;;;;10449939;28;20412;-81
2021/03/05 17:52:09;;;;;;;7.00;6.30;;;7.00;91.30;;;;;;10462591;28;20248;-80
2021/03/05 17:57:11;;;;;;;7.37;6.67;;;7.10;91.20;;;;;;10452426;28;20310;-81
2021/03/05 18:02:13;;;;;;;7.80;6.97;;;7.10;90.10;;;;;;10443775;28;20259;-81
2021/03/05 18:07:15;;;;;;;7.90;6.77;;;7.10;90.20;;;;;;10437940;28;20747;-81
2021/03/05 18:12:16;;;;;;;8.23;7.43;;;7.10;91.00;;;;;;10425999;28;20236;-82
2021/03/05 18:17:19;;;;;;;7.57;6.70;;;7.10;90.40;;;;;;10457030;28;20319;-81
2021/03/05 18:22:20;;;;;;;7.53;6.70;;;7.10;90.40;;;;;;10443899;28;20751;-81
2021/03/05 18:27:22;;;;;;;7.77;6.93;;;7.10;89.30;;;;;;10457826;28;20308;-81
2021/03/05 18:32:25;;;;;;;9.47;8.47;;;7.00;89.30;;;;;;10458911;28;20233;-81
2021/03/05 18:37:26;;;;;;;9.60;8.27;;;7.00;90.30;;;;;;10442109;28;20652;-81
2021/03/05 18:42:28;;;;;;;10.33;8.50;;;6.90;90.30;;;;;;10458374;28;20229;-81
2021/03/05 18:47:30;;;;;;;11.67;9.40;;;6.80;90.30;;;;;;10458276;28;20229;-81
2021/03/05 18:52:32;;;;;;;11.40;8.77;;;6.70;90.80;;;;;;10458544;28;20239;-81
2021/03/05 18:57:34;;;;;;;11.50;10.10;;;6.70;90.80;;;;;;10440520;28;20225;-81
2021/03/05 19:02:39;;;;;;;14.20;10.97;;;6.60;90.50;;;;;;10456460;28;20225;-81
2021/03/05 19:07:41;;;;;;;13.00;11.70;;;6.50;90.20;;;;;;10458308;28;20243;-81
2021/03/05 19:12:43;;;;;;;11.27;10.27;;;6.40;90.20;;;;;;10441065;28;20212;-81
2021/03/05 19:17:45;;;;;;;12.67;10.27;;;6.20;90.00;;;;;;10458458;28;20225;-81
2021/03/05 19:22:47;;;;;;;11.97;10.70;;;6.00;90.30;;;;;;10456867;28;20231;-81
2021/03/05 19:27:49;;;;;;;11.13;9.67;;;5.90;90.30;;;;;;10457272;28;20216;-81
2021/03/05 19:32:51;;;;;;;12.93;11.63;;;5.70;90.40;;;;;;10458136;28;20219;-81
2021/03/05 19:37:53;;;;;;;14.60;13.00;;;5.60;90.30;;;;;;10456528;28;20223;-81
2021/03/05 19:42:54;;;;;;;13.27;11.00;;;5.50;90.50;;;;;;10459345;28;20248;-81
2021/03/05 19:47:58;;;;;;;11.30;10.10;;;5.30;90.60;;;;;;10457696;28;20221;-81
2021/03/05 19:52:59;;;;;;;14.37;12.10;;;5.20;90.60;;;;;;10452913;28;20771;-81
2021/03/05 19:58:01;;;;;;;14.40;12.90;;;5.10;90.60;;;;;;10464348;28;20221;-81
2021/03/05 20:03:03;;;;;;;13.77;12.10;;;5.10;90.70;;;;;;10469276;28;20589;-81
2021/03/05 20:08:06;;;;;;;11.57;10.37;;;5.00;90.30;;;;;;10489241;22;20630;-77
2021/03/05 20:13:07;;;;;;;12.03;10.73;;;5.00;90.20;;;;;;10498387;28;20192;-79
2021/03/05 20:18:10;;;;;;;11.70;10.13;;;4.90;90.20;;;;;;10497137;28;20212;-77
2021/03/05 20:23:12;;;;;;;10.93;9.87;;;4.90;90.10;;;;;;10498610;28;20302;-79
2021/03/05 20:28:14;;;;;;;10.03;9.03;;;4.80;89.30;;;;;;10480722;28;20217;-78
2021/03/05 20:33:16;;;;;;;9.30;8.20;;;4.70;89.80;;;;;;10479529;28;20653;-78
2021/03/05 20:38:19;;;;;;;8.43;7.57;;;4.70;89.30;;;;;;10486410;28;20688;-76
2021/03/05 20:43:20;;;;;;;11.07;8.80;;;4.60;87.80;;;;;;10480646;28;20274;-77
2021/03/05 20:48:28;;;;;;;9.63;7.67;;;4.60;88.20;;;;;;10496686;28;20240;-77
2021/03/05 20:53:29;;;;;;;8.73;7.93;;;4.60;87.70;;;;;;10498213;28;20225;-78
2021/03/05 20:58:31;;;;;;;8.17;7.37;;;4.50;86.20;;;;;;10504310;28;20228;-79
2021/03/05 21:03:34;;;;;;;9.00;8.10;;;4.50;85.80;;;;;;10498685;28;20196;-79
2021/03/05 21:08:36;;;;;;;9.33;8.43;;;4.40;85.70;;;;;;10495161;28;20235;-77
2021/03/05 21:13:38;;;;;;;8.30;7.50;;;4.40;85.80;;;;;;10496714;28;20200;-79
2021/03/05 21:18:40;;;;;;;7.97;7.27;;;4.30;84.80;;;;;;10495067;28;20480;-80
2021/03/05 21:23:42;;;;;;;8.07;7.17;;;4.20;85.00;;;;;;10479682;28;20291;-79
2021/03/05 21:28:44;;;;;;;9.87;8.40;;;4.20;85.30;;;;;;10473614;28;20231;-80
2021/03/05 21:33:46;;;;;;;9.47;8.47;;;4.10;85.10;;;;;;10509727;28;20576;-78
2021/03/05 21:38:48;;;;;;;10.60;9.17;;;4.00;85.00;;;;;;10510276;28;20730;-80
2021/03/05 21:43:50;;;;;;;8.57;7.67;;;4.00;84.50;;;;;;10495399;28;20242;-78
2021/03/05 21:48:52;;;;;;;9.43;8.40;;;4.10;84.20;;;;;;10496098;28;20223;-77
2021/03/05 21:53:54;;;;;;;10.87;9.50;;;4.00;84.80;;;;;;10488078;28;20235;-78
2021/03/05 21:58:56;;;;;;;10.83;9.50;;;4.00;84.70;;;;;;10494403;28;20557;-77
2021/03/05 22:03:58;;;;;;;10.70;9.17;;;4.00;83.50;;;;;;10495094;28;20274;-76
2021/03/05 22:09:00;;;;;;;8.73;7.83;;;3.90;83.00;;;;;;10493320;28;20224;-76
2021/03/05 22:14:02;;;;;;;8.73;7.70;;;3.90;82.60;;;;;;10493909;28;20265;-78
2021/03/05 22:19:05;;;;;;;9.80;8.50;;;3.80;82.90;;;;;;10492892;28;20645;-76
2021/03/05 22:24:08;;;;;;;8.67;7.77;;;3.80;83.50;;;;;;10493011;28;20711;-77
2021/03/05 22:29:10;;;;;;;9.00;7.17;;;3.80;84.00;;;;;;10493314;28;20216;-78
2021/03/05 22:34:12;;;;;;;6.80;6.10;;;3.80;82.80;;;;;;10492073;28;20196;-80
2021/03/05 22:39:14;;;;;;;8.30;6.60;;;3.70;83.30;;;;;;10493634;28;20281;-79
2021/03/05 22:44:16;;;;;;;7.20;6.20;;;3.70;82.70;;;;;;10493469;28;20240;-77
2021/03/05 22:49:20;;;;;;;7.17;6.47;;;3.70;81.30;;;;;;10493185;28;20224;-78
2021/03/05 22:54:21;;;;;;;6.33;5.83;;;3.70;79.80;;;;;;10494076;28;20192;-78
2021/03/05 22:59:23;;;;;;;9.00;6.23;;;3.70;79.80;;;;;;10503491;28;20239;-77
2021/03/05 23:04:25;;;;;;;6.30;5.70;;;3.60;80.20;;;;;;10493240;28;20192;-80
2021/03/05 23:09:27;;;;;;;6.70;5.80;;;3.60;79.70;;;;;;10489360;28;20285;-76
2021/03/05 23:14:29;;;;;;;6.90;6.20;;;3.60;79.10;;;;;;10494036;28;20218;-77
2021/03/05 23:19:31;;;;;;;6.50;5.87;;;3.50;78.80;;;;;;10492834;28;21054;-77
2021/03/05 23:24:33;;;;;;;7.30;5.63;;;3.50;78.50;;;;;;10493045;28;20204;-78
2021/03/05 23:29:35;;;;;;;5.37;4.83;;;3.50;78.80;;;;;;10476648;28;20308;-76
2021/03/05 23:34:37;;;;;;;5.47;4.97;;;3.40;78.00;;;;;;10501215;28;20279;-79
2021/03/05 23:39:39;;;;;;;5.33;4.90;;;3.40;78.50;;;;;;10500938;28;20220;-76
2021/03/05 23:44:41;;;;;;;6.00;5.37;;;3.30;78.20;;;;;;10528281;28;20231;-77
2021/03/05 23:49:43;;;;;;;5.57;5.07;;;3.20;79.40;;;;;;10501159;28;20266;-79
2021/03/05 23:54:45;;;;;;;6.03;5.50;;;3.10;79.60;;;;;;10501054;28;20201;-78
2021/03/05 23:59:46;;;;;;;5.00;4.60;;;3.10;78.90;;;;;;10500002;28;20224;-79
